Terminal Aerodrome Forecast
Issued by NWS Cleveland, OH

Home | Current Version | Previous Version | Graphics & Text | Print | Product List | Glossary On
Versions: 1 2 3 4 5 6 7 8 9 10 11 12 13 14
380
FTUS41 KCLE 190859 AAA
TAFTOL
TAF AMD
KTOL 190859Z 1909/2006 34010KT 6SM -SN BKN050
     FM191000 32010G18KT P6SM BKN050
      TEMPO 1915/1917 32015G25KT P6SM BKN030
     FM191700 32015G25KT P6SM SCT035
     FM192300 33008KT P6SM FEW180=

USA.gov is the U.S. government's official web portal to all federal, state and local government web resources and services.